Time;durP1;ratioP1;P1;durP2;ratioP2;P2;SDS_P1;SDS_P2;PMS_P1;PMS_P2;Temp;Humidity;BMP_temperature;BMP_pressure;BME280_temperature;BME280_humidity;BME280_pressure;Samples;Min_cycle;Max_cycle;Signal;HPM_P1;HPM_P2
2023/04/28 04:01:05;;;;;;;2.90;2.70;;;3.90;99.90;;;;;;5693232;23;20245;-72
2023/04/28 04:03:32;;;;;;;1.02;1.02;;;3.90;99.90;;;;;;5026206;28;20272;-72
2023/04/28 04:05:59;;;;;;;1.88;1.55;;;3.90;99.90;;;;;;5027002;28;20207;-73
2023/04/28 04:08:26;;;;;;;4.13;1.52;;;4.00;99.90;;;;;;5026103;28;20269;-72
2023/04/28 04:10:53;;;;;;;0.98;0.98;;;4.00;99.90;;;;;;5025507;28;20227;-73
2023/04/28 04:13:20;;;;;;;1.65;1.65;;;4.00;99.90;;;;;;5024334;28;20227;-72
2023/04/28 04:15:47;;;;;;;1.52;1.42;;;4.00;99.90;;;;;;5019702;28;20265;-72
2023/04/28 04:18:15;;;;;;;2.08;2.08;;;4.10;99.90;;;;;;5010527;28;20219;-72
2023/04/28 04:20:42;;;;;;;2.30;1.00;;;4.10;99.90;;;;;;5010766;28;20231;-72
2023/04/28 04:23:08;;;;;;;1.13;1.02;;;4.10;99.90;;;;;;5010718;28;20203;-72
2023/04/28 04:25:35;;;;;;;1.65;1.38;;;4.20;99.90;;;;;;5010105;28;20207;-72
2023/04/28 04:28:02;;;;;;;2.53;2.42;;;4.20;99.90;;;;;;5010121;28;20656;-73
2023/04/28 04:30:29;;;;;;;2.20;2.05;;;4.30;99.90;;;;;;5002208;28;20309;-73
2023/04/28 04:32:56;;;;;;;0.50;0.50;;;4.30;99.90;;;;;;5012551;28;20229;-72
2023/04/28 04:35:24;;;;;;;3.05;2.75;;;4.30;99.90;;;;;;5013947;28;20624;-72
2023/04/28 04:37:51;;;;;;;2.05;2.05;;;4.40;99.90;;;;;;5014301;28;20541;-72
2023/04/28 04:40:17;;;;;;;2.03;1.60;;;4.40;99.90;;;;;;5014326;28;20213;-71
2023/04/28 04:42:44;;;;;;;4.57;3.28;;;4.70;99.90;;;;;;5013681;28;20207;-72
2023/04/28 04:45:11;;;;;;;3.63;3.05;;;5.20;99.90;;;;;;5013507;28;20214;-72
2023/04/28 04:47:38;;;;;;;2.42;2.28;;;5.60;99.90;;;;;;5013820;28;20290;-72
2023/04/28 04:50:05;;;;;;;3.13;2.10;;;6.00;99.90;;;;;;5014275;28;20219;-72
2023/04/28 04:52:33;;;;;;;3.10;2.75;;;6.40;99.90;;;;;;5013766;28;20688;-72
2023/04/28 04:55:00;;;;;;;2.08;1.90;;;6.70;99.90;;;;;;5013474;28;20210;-73
2023/04/28 04:57:27;;;;;;;2.67;1.90;;;6.90;99.90;;;;;;5013912;28;20234;-71
2023/04/28 04:59:53;;;;;;;2.53;1.70;;;6.90;99.90;;;;;;5013241;28;20297;-72
2023/04/28 05:02:20;;;;;;;2.20;2.03;;;6.80;99.90;;;;;;5013269;28;20231;-71
2023/04/28 05:04:47;;;;;;;1.73;1.73;;;6.80;99.90;;;;;;5013332;28;20207;-72
2023/04/28 05:07:13;;;;;;;2.40;1.70;;;6.80;99.90;;;;;;5013756;28;20353;-70
2023/04/28 05:09:41;;;;;;;4.28;1.85;;;7.00;99.90;;;;;;5013628;28;20211;-70
2023/04/28 05:12:08;;;;;;;2.50;2.30;;;7.20;99.90;;;;;;5013445;28;20231;-70
2023/04/28 05:14:35;;;;;;;1.83;1.75;;;7.30;99.90;;;;;;5013049;28;20225;-70
2023/04/28 05:17:02;;;;;;;3.15;1.75;;;7.30;99.90;;;;;;5013244;28;20211;-71
2023/04/28 05:19:28;;;;;;;2.17;1.98;;;7.20;99.90;;;;;;5013565;28;20210;-70
2023/04/28 05:21:55;;;;;;;3.13;1.88;;;7.30;99.90;;;;;;5013308;28;20581;-70
2023/04/28 05:24:23;;;;;;;1.08;1.08;;;7.30;99.90;;;;;;5012930;28;20203;-71
2023/04/28 05:26:51;;;;;;;1.77;1.23;;;7.30;99.90;;;;;;5013171;28;20230;-70
2023/04/28 05:29:18;;;;;;;1.70;1.60;;;7.30;99.90;;;;;;5012915;28;20273;-70
2023/04/28 05:31:44;;;;;;;1.75;1.25;;;7.40;99.90;;;;;;5012692;28;20707;-71
2023/04/28 05:34:11;;;;;;;1.77;1.77;;;7.50;99.90;;;;;;5012807;28;20238;-70
2023/04/28 05:36:38;;;;;;;3.47;1.70;;;7.50;99.90;;;;;;5013225;28;20207;-71
2023/04/28 05:39:05;;;;;;;1.80;1.70;;;7.60;99.90;;;;;;5013259;28;20214;-71
2023/04/28 05:41:32;;;;;;;3.60;0.70;;;7.70;99.90;;;;;;5012715;28;20280;-71
2023/04/28 05:44:00;;;;;;;2.58;0.93;;;7.70;99.90;;;;;;5011733;28;20204;-71
2023/04/28 05:46:27;;;;;;;1.25;1.20;;;7.80;99.90;;;;;;5012683;28;20337;-71
2023/04/28 05:48:53;;;;;;;0.88;0.88;;;7.80;99.90;;;;;;5012883;28;20207;-71
2023/04/28 05:51:21;;;;;;;1.20;1.20;;;7.90;99.90;;;;;;5012701;28;20715;-72
2023/04/28 05:53:48;;;;;;;1.35;1.35;;;8.10;99.90;;;;;;5012227;28;20223;-73
2023/04/28 05:56:15;;;;;;;1.33;1.17;;;8.00;99.90;;;;;;5012734;28;20242;-72
2023/04/28 05:58:43;;;;;;;0.73;0.50;;;8.10;99.90;;;;;;5013001;28;20325;-71
2023/04/28 06:01:11;;;;;;;1.63;1.48;;;8.10;99.90;;;;;;5012320;28;20250;-71
2023/04/28 06:03:39;;;;;;;1.17;1.17;;;8.30;99.90;;;;;;5012660;28;20210;-72
2023/04/28 06:06:06;;;;;;;0.93;0.93;;;8.40;99.90;;;;;;5012769;28;20584;-72
2023/04/28 06:08:34;;;;;;;0.90;0.90;;;8.60;99.90;;;;;;5012904;28;20222;-71
2023/04/28 06:11:00;;;;;;;1.27;1.27;;;9.00;99.90;;;;;;5012666;28;20381;-71
2023/04/28 06:13:27;;;;;;;2.85;0.95;;;9.40;99.90;;;;;;5011695;28;20238;-72
2023/04/28 06:15:54;;;;;;;1.15;1.13;;;9.80;99.90;;;;;;5012377;28;20210;-72
2023/04/28 06:18:23;;;;;;;1.03;1.03;;;10.20;99.90;;;;;;5012778;28;20666;-71
2023/04/28 06:20:50;;;;;;;1.50;1.50;;;10.60;99.90;;;;;;5012508;28;20486;-74
2023/04/28 06:23:17;;;;;;;1.60;1.27;;;11.00;99.90;;;;;;5012026;28;20943;-77
2023/04/28 06:25:43;;;;;;;1.23;1.23;;;11.40;99.90;;;;;;5012684;28;20466;-71
2023/04/28 06:28:12;;;;;;;1.37;1.37;;;11.60;99.90;;;;;;5012195;28;20917;-72
2023/04/28 06:30:38;;;;;;;1.13;1.13;;;12.00;99.90;;;;;;5004457;28;20512;-72
2023/04/28 06:33:05;;;;;;;1.50;1.40;;;12.20;99.90;;;;;;5011588;28;20478;-74
2023/04/28 06:35:35;;;;;;;1.37;1.37;;;12.30;99.90;;;;;;5011564;28;20549;-72
2023/04/28 06:38:02;;;;;;;1.53;1.53;;;12.50;99.90;;;;;;5012129;28;20557;-72
2023/04/28 06:40:29;;;;;;;1.50;1.40;;;12.70;99.90;;;;;;5012548;28;20462;-72
2023/04/28 06:42:56;;;;;;;1.00;1.00;;;12.60;99.90;;;;;;5011705;28;20469;-73
2023/04/28 06:45:22;;;;;;;1.43;1.43;;;12.50;99.90;;;;;;5011740;28;20552;-72
2023/04/28 06:47:50;;;;;;;2.67;1.43;;;12.60;99.90;;;;;;5011978;28;20473;-70
2023/04/28 06:50:16;;;;;;;1.33;1.33;;;12.70;99.90;;;;;;5013018;28;20833;-72
2023/04/28 06:52:44;;;;;;;2.17;1.67;;;12.90;99.90;;;;;;5013503;28;20473;-71
2023/04/28 06:55:16;;;;;;;1.87;0.97;;;12.90;99.90;;;;;;5012446;28;20831;-72
2023/04/28 06:57:42;;;;;;;1.43;1.43;;;12.90;99.90;;;;;;5013605;28;20524;-73
2023/04/28 07:00:11;;;;;;;0.93;0.93;;;13.10;99.90;;;;;;5013334;28;20462;-72
2023/04/28 07:02:38;;;;;;;0.90;0.90;;;12.90;99.90;;;;;;5012589;28;20480;-73
2023/04/28 07:05:05;;;;;;;0.73;0.70;;;13.10;99.90;;;;;;5012849;28;20473;-72
2023/04/28 07:07:32;;;;;;;1.50;1.20;;;13.30;99.90;;;;;;5013393;28;20469;-72
2023/04/28 07:10:01;;;;;;;1.60;1.60;;;13.70;99.90;;;;;;5012942;28;20481;-72
2023/04/28 07:12:28;;;;;;;2.03;1.93;;;13.70;99.90;;;;;;5012784;28;20576;-72
2023/04/28 07:14:55;;;;;;;1.67;1.63;;;14.00;99.90;;;;;;5011850;28;21096;-73
2023/04/28 07:17:21;;;;;;;1.30;1.30;;;13.70;99.90;;;;;;5012286;28;20475;-72
2023/04/28 07:19:49;;;;;;;1.10;1.10;;;13.80;99.90;;;;;;5013007;28;20470;-72
2023/04/28 07:22:16;;;;;;;1.23;1.23;;;13.90;99.20;;;;;;5012862;28;20486;-72
2023/04/28 07:24:43;;;;;;;1.33;1.23;;;14.20;98.90;;;;;;5012255;28;20468;-72
2023/04/28 07:27:11;;;;;;;5.43;1.37;;;14.10;97.50;;;;;;5012923;28;20953;-73
2023/04/28 07:29:38;;;;;;;0.93;0.93;;;14.30;97.80;;;;;;5012181;28;20473;-73
2023/04/28 07:32:07;;;;;;;2.43;1.40;;;14.10;96.90;;;;;;5011846;28;20604;-73
2023/04/28 07:34:34;;;;;;;1.50;1.50;;;14.00;97.10;;;;;;5011653;28;20994;-71
2023/04/28 07:37:01;;;;;;;1.20;1.20;;;13.90;97.30;;;;;;5012137;28;20807;-72
2023/04/28 07:39:28;;;;;;;1.23;1.23;;;13.70;97.40;;;;;;5012166;28;20465;-72
2023/04/28 07:41:56;;;;;;;1.93;1.83;;;13.60;97.80;;;;;;5012076;28;20494;-71
2023/04/28 07:44:24;;;;;;;1.37;1.30;;;13.60;97.60;;;;;;5010750;28;20876;-71
2023/04/28 07:46:51;;;;;;;2.73;2.60;;;13.70;97.90;;;;;;5011499;28;20469;-72
2023/04/28 07:49:18;;;;;;;8.57;1.90;;;13.50;97.40;;;;;;5011480;28;20477;-71
2023/04/28 07:51:45;;;;;;;1.00;1.00;;;13.20;96.90;;;;;;5011930;28;20501;-72
2023/04/28 07:54:11;;;;;;;2.00;1.50;;;13.00;97.30;;;;;;5012045;28;20493;-73
2023/04/28 07:56:38;;;;;;;1.20;1.20;;;12.90;96.90;;;;;;5012056;28;20473;-73
2023/04/28 07:59:05;;;;;;;1.13;1.13;;;12.80;97.00;;;;;;5011733;28;20462;-73
2023/04/28 08:01:33;;;;;;;2.20;1.40;;;12.70;97.40;;;;;;5011220;28;20568;-72
2023/04/28 08:04:00;;;;;;;11.93;2.03;;;12.70;97.40;;;;;;5011618;28;20458;-73
2023/04/28 08:06:26;;;;;;;0.93;0.93;;;12.80;98.00;;;;;;5011520;28;20469;-72
2023/04/28 08:08:54;;;;;;;0.93;0.93;;;12.80;97.40;;;;;;5012055;28;20466;-72
2023/04/28 08:11:21;;;;;;;0.93;0.93;;;12.80;97.70;;;;;;5011897;28;20489;-73
2023/04/28 08:13:48;;;;;;;0.93;0.93;;;12.90;97.70;;;;;;5012207;28;21076;-74
2023/04/28 08:16:15;;;;;;;1.40;1.33;;;12.80;97.40;;;;;;5013117;28;20457;-73
2023/04/28 08:18:44;;;;;;;1.37;1.27;;;12.80;97.30;;;;;;5013306;28;20516;-74
2023/04/28 08:21:11;;;;;;;0.60;0.60;;;12.80;97.40;;;;;;5013487;28;20485;-73
2023/04/28 08:23:38;;;;;;;6.00;2.67;;;12.80;97.70;;;;;;5013082;28;20466;-71
2023/04/28 08:26:04;;;;;;;1.73;0.40;;;12.90;98.40;;;;;;5012697;28;20473;-72
2023/04/28 08:28:32;;;;;;;2.30;1.17;;;13.00;98.00;;;;;;5011017;28;20499;-72
2023/04/28 08:30:59;;;;;;;1.77;1.77;;;13.20;97.60;;;;;;5010455;28;20499;-72
2023/04/28 08:33:26;;;;;;;1.73;1.63;;;13.10;96.70;;;;;;5010739;28;20584;-72
2023/04/28 08:35:55;;;;;;;1.70;1.60;;;13.10;97.10;;;;;;5011243;28;20466;-72
2023/04/28 08:38:24;;;;;;;10.10;1.27;;;13.20;97.40;;;;;;5011383;28;20468;-72
2023/04/28 08:40:50;;;;;;;0.67;0.67;;;13.30;96.90;;;;;;5011644;28;20518;-73
2023/04/28 08:43:19;;;;;;;1.73;1.63;;;13.30;96.30;;;;;;5011516;28;20466;-73
2023/04/28 08:45:46;;;;;;;2.67;2.40;;;13.30;96.80;;;;;;5011822;28;20798;-71
2023/04/28 08:48:19;;;;;;;7.00;1.50;;;13.30;96.70;;;;;;5011639;28;20488;-72
2023/04/28 08:50:50;;;;;;;1.60;1.60;;;13.50;97.30;;;;;;5012318;28;20552;-72
2023/04/28 08:53:24;;;;;;;1.33;1.30;;;13.60;96.70;;;;;;5012343;28;20532;-72
2023/04/28 08:55:54;;;;;;;1.13;1.13;;;13.60;96.20;;;;;;5012472;28;20477;-73
2023/04/28 08:58:22;;;;;;;0.83;0.67;;;13.50;96.40;;;;;;5012902;28;20468;-72
2023/04/28 09:00:49;;;;;;;1.97;1.87;;;13.60;96.60;;;;;;5012873;28;20494;-73
2023/04/28 09:03:15;;;;;;;1.63;1.03;;;13.70;96.70;;;;;;5011775;28;20473;-72
2023/04/28 09:05:42;;;;;;;1.13;1.13;;;13.70;96.30;;;;;;5012909;28;20565;-71
2023/04/28 09:08:10;;;;;;;1.90;1.00;;;13.70;96.20;;;;;;5012397;28;20489;-72
2023/04/28 09:10:38;;;;;;;1.67;1.67;;;13.70;96.10;;;;;;5013075;28;20492;-72
2023/04/28 09:13:05;;;;;;;1.17;1.17;;;13.80;96.60;;;;;;5013302;28;20472;-72
2023/04/28 09:15:34;;;;;;;1.87;1.77;;;13.90;96.50;;;;;;5013050;28;20492;-72
2023/04/28 09:18:02;;;;;;;5.23;2.27;;;14.00;96.60;;;;;;5013387;28;20943;-71
2023/04/28 09:20:30;;;;;;;1.50;1.40;;;14.10;96.40;;;;;;5016587;28;20466;-73
2023/04/28 09:23:13;;;;;;;1.87;1.73;;;13.90;96.30;;;;;;5016197;28;20512;-74
2023/04/28 09:25:41;;;;;;;1.47;1.37;;;13.80;96.40;;;;;;5016399;28;20462;-74
2023/04/28 09:28:21;;;;;;;1.90;1.90;;;14.00;96.30;;;;;;5016440;28;20469;-73
2023/04/28 09:30:48;;;;;;;4.17;3.87;;;14.10;96.30;;;;;;4996599;28;20490;-73
2023/04/28 09:33:15;;;;;;;2.60;2.40;;;14.20;95.80;;;;;;5012762;28;20457;-73
2023/04/28 09:35:44;;;;;;;2.47;2.37;;;14.20;95.90;;;;;;5016703;28;20481;-73
2023/04/28 09:38:11;;;;;;;1.00;1.00;;;14.30;96.20;;;;;;5015482;28;20458;-73
2023/04/28 09:40:51;;;;;;;9.33;1.77;;;14.40;96.00;;;;;;5016253;28;20474;-73
2023/04/28 09:43:28;;;;;;;2.37;2.17;;;14.30;95.80;;;;;;5014942;28;20466;-71
2023/04/28 09:45:56;;;;;;;2.87;1.87;;;14.40;96.00;;;;;;5015448;28;20481;-72
2023/04/28 09:48:31;;;;;;;2.23;2.13;;;14.50;96.30;;;;;;5015369;28;20958;-72
2023/04/28 09:50:59;;;;;;;2.17;2.07;;;14.60;96.40;;;;;;5015317;28;20482;-73
2023/04/28 09:53:26;;;;;;;1.77;1.43;;;14.70;96.30;;;;;;5014977;28;20462;-72
2023/04/28 09:55:57;;;;;;;3.27;1.57;;;14.60;95.40;;;;;;5015829;28;20497;-72
2023/04/28 09:58:24;;;;;;;3.03;2.30;;;14.50;95.40;;;;;;5015139;28;20501;-72
2023/04/28 10:00:55;;;;;;;1.83;1.73;;;14.60;95.80;;;;;;5014499;28;20496;-71
2023/04/28 10:03:23;;;;;;;1.80;1.70;;;14.70;96.00;;;;;;5014047;28;20451;-71
2023/04/28 10:05:52;;;;;;;3.93;1.80;;;14.80;95.60;;;;;;5014092;28;20796;-72
2023/04/28 10:08:20;;;;;;;2.20;2.20;;;14.90;95.10;;;;;;5013870;28;20556;-72
2023/04/28 10:10:48;;;;;;;2.90;2.70;;;15.00;95.70;;;;;;5014357;28;20497;-72
2023/04/28 10:13:18;;;;;;;1.80;1.70;;;15.10;95.90;;;;;;5014065;28;20469;-73
2023/04/28 10:15:45;;;;;;;2.10;2.00;;;15.20;95.40;;;;;;5013879;28;20494;-73
2023/04/28 10:18:13;;;;;;;3.10;2.80;;;15.20;95.20;;;;;;5012054;28;20545;-73
2023/04/28 10:20:41;;;;;;;2.57;2.33;;;15.30;95.70;;;;;;5012324;28;20927;-73
2023/04/28 10:23:32;;;;;;;2.03;2.00;;;15.20;95.00;;;;;;5012462;28;20468;-72
2023/04/28 10:26:00;;;;;;;1.90;1.90;;;15.20;95.30;;;;;;5012591;28;20465;-73
2023/04/28 10:28:28;;;;;;;2.10;2.00;;;15.40;95.40;;;;;;5011750;28;20468;-73
2023/04/28 10:31:11;;;;;;;3.17;3.07;;;15.40;95.20;;;;;;5011423;28;20492;-73
2023/04/28 10:33:39;;;;;;;3.83;3.50;;;15.50;95.10;;;;;;5011517;28;20833;-73
2023/04/28 10:36:07;;;;;;;1.13;1.13;;;15.70;95.20;;;;;;5012444;28;20500;-73
2023/04/28 10:38:34;;;;;;;1.80;1.80;;;15.60;94.60;;;;;;5012136;28;20500;-73
2023/04/28 10:41:01;;;;;;;2.50;2.30;;;15.60;95.00;;;;;;5011951;28;20485;-73
2023/04/28 10:43:39;;;;;;;3.07;2.87;;;15.80;95.30;;;;;;5011344;28;20465;-72
2023/04/28 10:46:07;;;;;;;1.70;1.60;;;15.80;94.80;;;;;;5011414;28;20494;-73
2023/04/28 10:48:57;;;;;;;2.53;2.40;;;15.80;95.50;;;;;;5011836;28;20466;-73
2023/04/28 10:51:28;;;;;;;3.20;1.80;;;15.90;95.20;;;;;;5011844;28;20489;-73
2023/04/28 10:54:29;;;;;;;2.97;1.23;;;15.80;95.00;;;;;;5011420;28;20477;-73
2023/04/28 10:57:18;;;;;;;2.50;2.40;;;15.80;94.70;;;;;;5014490;28;20457;-73
2023/04/28 10:59:46;;;;;;;3.83;2.70;;;15.70;95.60;;;;;;5005173;28;20473;-73
2023/04/28 11:02:48;;;;;;;6.90;2.23;;;15.70;95.00;;;;;;5012818;28;20498;-73
2023/04/28 11:05:17;;;;;;;2.60;2.50;;;15.80;95.00;;;;;;5012424;28;20994;-73
2023/04/28 11:08:29;;;;;;;2.47;2.37;;;16.00;95.70;;;;;;5011886;28;20490;-72
2023/04/28 11:11:24;;;;;;;2.47;2.37;;;16.00;95.60;;;;;;4991658;28;20490;-74
2023/04/28 11:13:53;;;;;;;1.70;1.60;;;16.10;95.40;;;;;;5017498;28;20462;-72
2023/04/28 11:16:23;;;;;;;1.73;1.70;;;16.10;95.50;;;;;;5016941;28;20497;-72
2023/04/28 11:18:55;;;;;;;2.10;1.97;;;16.10;95.20;;;;;;5017291;28;20790;-72
2023/04/28 11:21:24;;;;;;;2.27;2.17;;;16.10;94.90;;;;;;5017168;28;20787;-71
2023/04/28 11:23:51;;;;;;;1.53;1.43;;;16.20;94.90;;;;;;5015721;28;20556;-70
2023/04/28 11:26:19;;;;;;;2.63;2.20;;;16.20;95.30;;;;;;5017593;28;20466;-72
2023/04/28 11:28:50;;;;;;;3.43;2.80;;;16.40;95.40;;;;;;5013084;28;20471;-72
2023/04/28 11:31:19;;;;;;;2.33;2.20;;;16.30;95.40;;;;;;5011832;28;20487;-71
2023/04/28 11:33:51;;;;;;;2.67;2.47;;;16.30;95.40;;;;;;5017781;28;20462;-73
2023/04/28 11:36:39;;;;;;;2.47;2.27;;;16.30;95.00;;;;;;5019868;28;20500;-72
2023/04/28 11:39:07;;;;;;;1.70;1.60;;;16.20;95.20;;;;;;5014403;28;20553;-73
2023/04/28 11:41:35;;;;;;;2.97;2.47;;;16.20;95.20;;;;;;5017305;28;20478;-72
2023/04/28 11:44:10;;;;;;;3.70;3.13;;;16.30;95.30;;;;;;5016629;28;20569;-73
2023/04/28 11:46:44;;;;;;;2.73;2.53;;;16.50;95.40;;;;;;5016844;28;21029;-72
2023/04/28 11:49:13;;;;;;;2.27;2.17;;;16.60;95.20;;;;;;5016732;28;20468;-72
2023/04/28 11:51:41;;;;;;;1.60;1.60;;;16.70;95.00;;;;;;5016590;28;20561;-73
2023/04/28 11:54:10;;;;;;;2.13;1.93;;;17.00;94.80;;;;;;5016111;28;20462;-72
2023/04/28 11:56:38;;;;;;;5.23;2.47;;;17.20;94.70;;;;;;5016252;28;20462;-72
2023/04/28 11:59:07;;;;;;;4.23;2.20;;;17.20;94.80;;;;;;5014813;28;20760;-71
2023/04/28 12:01:37;;;;;;;2.40;2.27;;;17.30;94.20;;;;;;5015885;28;20494;-72
2023/04/28 12:04:04;;;;;;;3.17;2.20;;;17.40;94.50;;;;;;5017288;28;20511;-72
2023/04/28 12:06:32;;;;;;;3.03;2.83;;;17.20;93.90;;;;;;5016118;28;20576;-72
2023/04/28 12:09:03;;;;;;;1.80;1.80;;;17.20;94.30;;;;;;5016568;28;20462;-72
2023/04/28 12:11:30;;;;;;;3.53;1.90;;;17.20;94.40;;;;;;5016218;28;20474;-71
2023/04/28 12:14:07;;;;;;;2.63;2.47;;;17.20;94.20;;;;;;5015462;28;20464;-72
2023/04/28 12:16:43;;;;;;;2.00;1.90;;;17.20;94.00;;;;;;5015543;28;20493;-72
2023/04/28 12:19:11;;;;;;;1.73;1.73;;;17.30;94.70;;;;;;5015885;28;20856;-72
2023/04/28 12:21:39;;;;;;;0.87;0.87;;;17.30;94.70;;;;;;5016323;28;20489;-72
2023/04/28 12:24:17;;;;;;;6.33;2.63;;;17.10;94.30;;;;;;5014753;28;20462;-72
2023/04/28 12:26:44;;;;;;;1.50;1.50;;;17.00;94.50;;;;;;5015672;28;20832;-72
2023/04/28 12:29:30;;;;;;;2.87;2.60;;;17.00;94.70;;;;;;5008841;28;20540;-72
2023/04/28 12:31:57;;;;;;;1.77;1.67;;;17.00;93.90;;;;;;5008947;28;20568;-72
2023/04/28 12:34:24;;;;;;;3.10;2.50;;;17.00;94.20;;;;;;5015219;28;20476;-72
2023/04/28 12:36:52;;;;;;;2.10;2.00;;;16.80;94.10;;;;;;5016846;28;20802;-71
2023/04/28 12:39:21;;;;;;;4.60;4.00;;;16.80;94.10;;;;;;5016488;28;20461;-72
2023/04/28 12:41:48;;;;;;;2.60;2.50;;;16.90;94.60;;;;;;5015905;28;20518;-71
2023/04/28 12:44:15;;;;;;;1.97;1.87;;;17.00;95.00;;;;;;5015962;28;20972;-72
2023/04/28 12:46:42;;;;;;;4.03;3.73;;;17.20;94.80;;;;;;5016611;28;20473;-72
2023/04/28 12:49:08;;;;;;;2.77;2.67;;;17.20;94.00;;;;;;5016791;28;20477;-72
2023/04/28 12:51:38;;;;;;;2.60;2.50;;;17.20;94.10;;;;;;5016524;28;20486;-72
2023/04/28 12:54:06;;;;;;;3.90;2.93;;;17.20;94.00;;;;;;5017490;28;20955;-72
2023/04/28 12:56:33;;;;;;;2.13;2.03;;;16.90;94.20;;;;;;5017453;28;20563;-72
2023/04/28 12:59:01;;;;;;;1.63;1.63;;;16.90;94.90;;;;;;5017632;28;20569;-72
2023/04/28 13:01:28;;;;;;;4.33;2.90;;;16.90;94.40;;;;;;5018397;28;20844;-72
2023/04/28 13:03:55;;;;;;;2.87;2.67;;;17.10;94.70;;;;;;5018111;28;20466;-71
2023/04/28 13:06:22;;;;;;;3.47;3.23;;;17.20;94.80;;;;;;5018324;28;20515;-72
2023/04/28 13:08:49;;;;;;;2.87;2.57;;;17.20;94.60;;;;;;5017079;28;20465;-73
2023/04/28 13:11:17;;;;;;;4.33;1.90;;;17.00;94.00;;;;;;5017517;28;20584;-72
2023/04/28 13:13:44;;;;;;;10.10;3.47;;;16.80;94.00;;;;;;5017023;28;20815;-73
2023/04/28 13:16:10;;;;;;;3.57;3.37;;;16.70;94.50;;;;;;5016591;28;20536;-72
2023/04/28 13:18:37;;;;;;;4.63;2.30;;;16.70;94.60;;;;;;5018111;28;20474;-72
2023/04/28 13:21:05;;;;;;;2.80;2.60;;;16.70;94.90;;;;;;5017254;28;20486;-72
2023/04/28 13:23:31;;;;;;;3.47;3.17;;;16.70;95.00;;;;;;5016111;28;20512;-71
2023/04/28 13:25:58;;;;;;;3.60;3.23;;;16.80;95.30;;;;;;5016240;28;20468;-71
2023/04/28 13:28:27;;;;;;;2.20;2.10;;;16.80;95.00;;;;;;5015932;28;20468;-72
2023/04/28 13:30:54;;;;;;;3.33;3.10;;;16.80;95.10;;;;;;5016539;28;20482;-72
2023/04/28 13:33:21;;;;;;;1.80;1.70;;;16.90;95.40;;;;;;5016500;28;20841;-72
2023/04/28 13:35:48;;;;;;;3.20;2.87;;;16.80;95.00;;;;;;5016400;28;20917;-72
2023/04/28 13:38:15;;;;;;;2.93;2.83;;;16.80;95.30;;;;;;5016339;28;20591;-72
2023/04/28 13:40:41;;;;;;;3.67;3.47;;;16.80;94.90;;;;;;5016375;28;20535;-72
2023/04/28 13:43:08;;;;;;;1.87;1.77;;;16.60;94.90;;;;;;5016256;28;20516;-72
2023/04/28 13:45:36;;;;;;;2.87;2.67;;;16.50;95.50;;;;;;5016064;28;20948;-72
2023/04/28 13:48:03;;;;;;;2.73;2.53;;;16.50;95.20;;;;;;5015923;28;20462;-72
2023/04/28 13:50:30;;;;;;;3.10;2.90;;;16.70;95.30;;;;;;5016843;28;20556;-72
2023/04/28 13:52:57;;;;;;;6.37;3.37;;;16.70;95.40;;;;;;5017560;28;20462;-72
2023/04/28 13:55:26;;;;;;;2.80;2.60;;;16.70;95.50;;;;;;5016730;28;20513;-72
2023/04/28 13:57:53;;;;;;;3.20;3.00;;;16.70;95.40;;;;;;5016398;28;20462;-72
2023/04/28 14:00:21;;;;;;;3.33;3.13;;;16.50;95.20;;;;;;5015818;28;20469;-72
2023/04/28 14:02:49;;;;;;;1.67;1.57;;;16.30;94.80;;;;;;5015482;28;20502;-72
2023/04/28 14:05:16;;;;;;;2.10;2.00;;;16.10;95.10;;;;;;5016557;28;20545;-73
2023/04/28 14:07:44;;;;;;;3.47;2.20;;;16.00;95.70;;;;;;5017058;28;20474;-72
2023/04/28 14:10:11;;;;;;;2.63;1.83;;;16.00;95.60;;;;;;5017719;28;20462;-72
2023/04/28 14:12:38;;;;;;;3.87;3.57;;;16.10;95.80;;;;;;5018604;28;20561;-73
2023/04/28 14:15:05;;;;;;;1.77;1.30;;;16.10;96.20;;;;;;5017449;28;20955;-72
2023/04/28 14:17:33;;;;;;;3.63;3.40;;;16.20;96.00;;;;;;5017719;28;20466;-73
2023/04/28 14:20:01;;;;;;;5.60;3.03;;;16.20;96.00;;;;;;5018150;28;20470;-71
2023/04/28 14:22:28;;;;;;;3.00;2.90;;;16.20;96.20;;;;;;5018084;28;20493;-73
2023/04/28 14:24:54;;;;;;;5.73;2.87;;;16.20;96.00;;;;;;5017236;28;20634;-73
2023/04/28 14:27:22;;;;;;;3.13;2.93;;;16.10;96.20;;;;;;5018339;28;20466;-72
2023/04/28 14:29:49;;;;;;;2.93;2.73;;;16.10;96.40;;;;;;5010012;28;20588;-73
2023/04/28 14:32:19;;;;;;;3.37;3.10;;;16.10;96.40;;;;;;5018179;28;20488;-73
2023/04/28 14:34:46;;;;;;;4.20;2.63;;;16.10;96.70;;;;;;5017197;28;20565;-72
2023/04/28 14:37:15;;;;;;;6.33;2.30;;;16.10;96.50;;;;;;5017484;28;20910;-73
2023/04/28 14:39:42;;;;;;;2.33;2.23;;;16.10;96.90;;;;;;5019221;28;20466;-73
2023/04/28 14:42:09;;;;;;;2.57;2.37;;;16.10;96.50;;;;;;5017369;28;20982;-73
2023/04/28 14:44:36;;;;;;;2.90;2.77;;;16.00;96.10;;;;;;5017700;28;20483;-73
2023/04/28 14:47:03;;;;;;;2.30;2.20;;;15.90;96.00;;;;;;5017412;28;20565;-73
2023/04/28 14:49:30;;;;;;;2.03;2.00;;;15.90;96.10;;;;;;5018330;28;20557;-73
2023/04/28 14:51:58;;;;;;;2.23;2.00;;;15.90;96.50;;;;;;5021811;28;20482;-74
2023/04/28 14:54:26;;;;;;;3.43;3.13;;;15.80;96.60;;;;;;5020389;28;20512;-73
2023/04/28 14:56:53;;;;;;;1.67;1.57;;;15.80;96.30;;;;;;5018940;28;20828;-75
2023/04/28 14:59:20;;;;;;;3.50;3.20;;;15.70;96.40;;;;;;5017743;28;20465;-73
2023/04/28 15:01:47;;;;;;;4.07;3.27;;;15.60;96.50;;;;;;5016754;28;20493;-73
2023/04/28 15:04:13;;;;;;;3.10;2.70;;;15.60;96.90;;;;;;5016609;28;20461;-74
2023/04/28 15:06:40;;;;;;;3.37;3.17;;;15.60;97.10;;;;;;5017205;28;20454;-73
2023/04/28 15:09:07;;;;;;;1.67;1.50;;;15.60;96.70;;;;;;5017398;28;20513;-73
2023/04/28 15:11:35;;;;;;;3.53;3.23;;;15.60;97.00;;;;;;5018487;28;20482;-74
2023/04/28 15:14:02;;;;;;;3.53;3.23;;;15.60;97.20;;;;;;5017978;28;20462;-73
2023/04/28 15:16:28;;;;;;;3.30;3.00;;;15.50;97.30;;;;;;5016971;28;20485;-73
2023/04/28 15:18:55;;;;;;;3.10;2.90;;;15.50;97.60;;;;;;5018477;28;20534;-73
2023/04/28 15:21:22;;;;;;;3.53;2.77;;;15.50;97.50;;;;;;5018138;28;20569;-73
2023/04/28 15:23:49;;;;;;;3.20;2.90;;;15.50;98.00;;;;;;5017516;28;20462;-72
2023/04/28 15:26:15;;;;;;;2.47;2.27;;;15.50;97.90;;;;;;5018536;28;20458;-73
2023/04/28 15:28:43;;;;;;;2.63;2.53;;;15.40;98.00;;;;;;5014543;28;20462;-73
2023/04/28 15:31:10;;;;;;;2.83;2.20;;;15.40;98.30;;;;;;5012407;28;20482;-73
2023/04/28 15:33:37;;;;;;;3.00;2.90;;;15.40;98.50;;;;;;5017792;28;20469;-73
2023/04/28 15:36:04;;;;;;;2.53;2.40;;;15.30;98.50;;;;;;5017347;28;20490;-73
2023/04/28 15:38:31;;;;;;;6.33;2.90;;;15.30;98.80;;;;;;5018491;28;20470;-73
2023/04/28 15:40:58;;;;;;;4.67;3.13;;;15.30;98.90;;;;;;5018020;28;20485;-73
2023/04/28 15:43:25;;;;;;;3.90;3.60;;;15.30;99.00;;;;;;5017324;28;20521;-72
2023/04/28 15:45:53;;;;;;;2.50;2.40;;;15.30;99.40;;;;;;5019220;28;20825;-73
2023/04/28 15:48:20;;;;;;;4.37;3.07;;;15.30;99.20;;;;;;5019784;28;20552;-73
2023/04/28 15:50:46;;;;;;;2.30;2.20;;;15.30;99.50;;;;;;5018974;28;20489;-75
2023/04/28 15:53:13;;;;;;;8.13;2.80;;;15.30;99.80;;;;;;5017556;28;20818;-72
2023/04/28 15:55:40;;;;;;;3.17;2.97;;;15.30;99.80;;;;;;5018027;28;20458;-72
2023/04/28 15:58:08;;;;;;;4.43;4.23;;;15.30;99.90;;;;;;5016375;28;20463;-73
2023/04/28 16:00:35;;;;;;;3.60;2.70;;;15.30;99.90;;;;;;5015880;28;20494;-73
2023/04/28 16:03:03;;;;;;;4.17;3.97;;;15.40;99.90;;;;;;5016396;28;20489;-73
2023/04/28 16:05:29;;;;;;;2.17;1.70;;;15.30;99.90;;;;;;5015968;28;20466;-73
2023/04/28 16:07:56;;;;;;;3.20;2.20;;;15.20;99.90;;;;;;5016834;28;20465;-73
2023/04/28 16:10:23;;;;;;;3.93;3.63;;;15.20;99.90;;;;;;5016842;28;20465;-73
2023/04/28 16:12:49;;;;;;;5.47;2.70;;;15.10;99.90;;;;;;5016491;28;20486;-73
2023/04/28 16:15:17;;;;;;;2.77;2.67;;;15.10;99.90;;;;;;5039755;23;20462;-72
2023/04/28 16:17:44;;;;;;;6.33;3.90;;;15.00;99.90;;;;;;4990505;28;20517;-71
2023/04/28 16:20:12;;;;;;;6.17;3.07;;;15.00;99.90;;;;;;4991857;28;20815;-73
2023/04/28 16:22:40;;;;;;;1.57;1.57;;;14.90;99.90;;;;;;4992144;28;20839;-71
2023/04/28 16:25:08;;;;;;;3.10;2.30;;;14.90;99.90;;;;;;4991110;28;20473;-71
2023/04/28 16:27:35;;;;;;;2.80;2.43;;;14.90;99.90;;;;;;4993809;28;20486;-71
2023/04/28 16:30:03;;;;;;;1.63;1.53;;;14.90;99.90;;;;;;5001930;28;20496;-72
2023/04/28 16:32:32;;;;;;;2.47;2.07;;;14.90;99.90;;;;;;5006151;28;20552;-73
2023/04/28 16:34:58;;;;;;;4.40;3.60;;;14.90;99.90;;;;;;4996094;28;20467;-72
2023/04/28 16:37:27;;;;;;;3.17;3.00;;;14.80;99.90;;;;;;4996417;28;20517;-71
2023/04/28 16:39:53;;;;;;;2.90;2.80;;;14.80;99.90;;;;;;4995875;28;20463;-71
2023/04/28 16:42:21;;;;;;;3.07;2.80;;;14.80;99.90;;;;;;4997555;28;20489;-72
2023/04/28 16:44:48;;;;;;;2.90;2.70;;;14.70;99.90;;;;;;4996859;28;20640;-71
2023/04/28 16:47:15;;;;;;;3.83;2.77;;;14.70;99.90;;;;;;4997325;28;20487;-73
2023/04/28 16:49:42;;;;;;;3.30;3.00;;;14.60;99.90;;;;;;4997855;28;20529;-72
2023/04/28 16:52:08;;;;;;;7.13;4.03;;;14.60;99.90;;;;;;4996802;28;20487;-72
2023/04/28 16:54:37;;;;;;;4.57;3.00;;;14.60;99.90;;;;;;4995816;28;20983;-71